Game Details

[ Leader Board ] [ Players ] [ Opponents ] [ Guilds ] [ Areas ]

Game Details for: Darryl

Game Progress

Quest Completed on Day
Old Lab 160
Lab Power 159
Arena 3 124
Trader 5 118
Arena 2 108
Trader 4 92
Data Cubes 86
Mountain Pass 63
Chaak Mine 62
Dave and Heidi 51
Arena 1 40
Mushroom Stew 9

Full Telemetry

Time Game Day Game Hour Game Minute Type Details Value Extra Zone X Y Credits Guild
9/19/2018 11:26:36 AM 19 9 46 Save 0 2 Village1 10 9 559 Mercenary
9/19/2018 11:26:17 AM 19 9 29 Daily Dane 1123 Village1 10 27 571 Mercenary
9/19/2018 11:25:47 AM 18 10 21 Arena Win 3 Village1 10 7 472 Mercenary
9/19/2018 11:25:47 AM 18 10 21 Combat Lv 2 Worg 0 Win Village1 10 7 423 Mercenary
9/19/2018 7:46:59 AM 18 10 21 Save 1 2 Village1 10 9 391 Mercenary
9/19/2018 7:46:49 AM 18 10 20 Train Intelligence 2 Village1 4 9 391 Mercenary
9/19/2018 7:46:28 AM 18 8 2 Daily Dane 999 Village1 10 27 435 Mercenary
9/19/2018 7:46:07 AM 17 10 4 Combat Lv 1 Wasp 0 Win Wilderness1 22 34 392 Mercenary
9/19/2018 7:45:49 AM 17 9 52 Combat Lv 1 Worg 0 Win Wilderness1 21 35 378 Mercenary
9/18/2018 6:46:34 PM 17 8 51 Save 2 1 Village2 12 17 352 Mercenary
9/18/2018 6:46:11 PM 17 8 48 Guild Mercenary 0 Village2 18 8 352 Mercenary
9/18/2018 6:45:51 PM 17 8 48 Save 0 2 Village2 18 10 552 None
9/18/2018 6:45:35 PM 17 8 38 Daily Dane 999 Village2 5 22 560 None
9/18/2018 6:45:11 PM 16 11 16 Combat Lv 1 Worg 0 Win Wilderness1 12 35 525 None
9/18/2018 3:47:50 PM 16 8 57 Save 0 2 Wilderness1 34 26 502 None
9/18/2018 3:47:37 PM 16 8 28 Daily Dane 999 Village1 10 27 508 None
9/18/2018 3:47:01 PM 15 8 13 Daily Dane 999 Village1 10 27 451 None
9/18/2018 3:46:30 PM 14 12 5 Arena Win 2 Village1 10 7 408 None
9/18/2018 3:46:30 PM 14 12 5 Combat Lv 3 Wasp 0 OpponentFlee Village1 10 7 371 None
9/18/2018 3:42:17 PM 14 11 54 Equip Kinetic Field 133 Village1 22 25 333 None
9/18/2018 3:41:48 PM 14 11 47 Train Tech 2 Village1 4 9 511 None
9/18/2018 3:41:41 PM 14 9 46 Save 1 1 Village1 10 9 543 None
9/18/2018 3:40:00 PM 14 8 46 Combat Lv 1 Worg 0 Win Village1 10 7 518 None
9/18/2018 3:40:00 PM 14 8 46 Arena Win 1 Village1 10 7 543 None
9/18/2018 3:19:28 PM 14 8 46 Save 0 2 Village1 11 9 490 None
9/18/2018 3:19:08 PM 14 8 28 Daily Dane 906 Village1 10 27 502 None
9/18/2018 3:18:50 PM 13 2 21 Daily Dane 906 Village1 10 27 470 None
9/18/2018 3:18:23 PM 12 17 13 Train Accuracy 2 Village1 4 9 426 None
9/18/2018 3:18:20 PM 12 15 13 Train Speed 2 Village1 4 9 458 None
9/18/2018 3:18:16 PM 12 13 13 Train Endurance 2 Village1 4 9 482 None